Time;durP1;ratioP1;P1;durP2;ratioP2;P2;SDS_P1;SDS_P2;PMS_P1;PMS_P2;Temp;Humidity;BMP_temperature;BMP_pressure;BME280_temperature;BME280_humidity;BME280_pressure;Samples;Min_cycle;Max_cycle;Signal;HPM_P1;HPM_P2
2021/01/20 00:01:47;;;;;;;58.78;35.83;;;1.20;99.90;;;;;;4915340;28;21628;-69
2021/01/20 00:04:14;;;;;;;59.45;34.33;;;1.30;99.90;;;;;;4913524;28;20117;-69
2021/01/20 00:06:40;;;;;;;62.17;37.22;;;1.30;99.90;;;;;;4916077;28;20124;-69
2021/01/20 00:09:07;;;;;;;54.63;37.10;;;1.30;99.90;;;;;;4913927;28;20414;-69
2021/01/20 00:11:33;;;;;;;63.95;35.92;;;1.30;99.90;;;;;;4915692;28;20047;-69
2021/01/20 00:14:00;;;;;;;62.47;37.28;;;1.30;99.90;;;;;;4915070;28;20058;-67
2021/01/20 00:16:26;;;;;;;64.30;38.17;;;1.30;99.90;;;;;;4913878;28;20347;-69
2021/01/20 00:18:52;;;;;;;64.18;38.30;;;1.30;99.90;;;;;;4914250;28;20050;-69
2021/01/20 00:21:19;;;;;;;69.20;39.35;;;1.30;99.90;;;;;;4915120;28;20057;-69
2021/01/20 00:23:46;;;;;;;58.75;37.33;;;1.30;99.90;;;;;;4913058;28;20050;-68
2021/01/20 00:26:12;;;;;;;70.00;39.95;;;1.30;99.90;;;;;;4912946;28;21522;-66
2021/01/20 00:28:42;;;;;;;69.07;41.03;;;1.30;99.90;;;;;;4912442;28;20078;-69
2021/01/20 00:31:09;;;;;;;77.47;45.25;;;1.30;99.90;;;;;;4914872;28;20498;-69
2021/01/20 00:33:35;;;;;;;72.90;40.63;;;1.30;99.90;;;;;;4915096;28;20055;-69
2021/01/20 00:36:02;;;;;;;70.18;41.22;;;1.30;99.90;;;;;;4914922;28;20051;-69
2021/01/20 00:38:29;;;;;;;71.05;44.65;;;1.30;99.90;;;;;;4916097;28;20128;-69
2021/01/20 00:40:55;;;;;;;77.88;45.50;;;1.30;99.90;;;;;;4912414;28;20093;-68
2021/01/20 00:43:22;;;;;;;70.57;40.90;;;1.30;99.90;;;;;;4914747;28;20165;-69
2021/01/20 00:45:48;;;;;;;71.97;40.30;;;1.30;99.90;;;;;;4913941;28;20770;-68
2021/01/20 00:48:16;;;;;;;71.35;42.97;;;1.30;99.90;;;;;;4913747;28;20042;-65
2021/01/20 00:50:42;;;;;;;70.82;42.50;;;1.30;99.90;;;;;;4914408;28;20038;-67
2021/01/20 00:53:09;;;;;;;68.07;42.83;;;1.30;99.90;;;;;;4912888;28;20049;-67
2021/01/20 00:55:36;;;;;;;73.53;44.35;;;1.30;99.90;;;;;;4912421;28;20762;-66
2021/01/20 00:58:02;;;;;;;65.68;41.08;;;1.30;99.90;;;;;;4915532;28;20708;-67
2021/01/20 01:00:29;;;;;;;70.07;40.75;;;1.30;99.90;;;;;;4911887;28;20054;-69
2021/01/20 01:02:56;;;;;;;69.00;42.78;;;1.30;99.90;;;;;;4910399;28;21450;-66
2021/01/20 01:05:23;;;;;;;68.13;41.88;;;1.40;99.90;;;;;;4913773;28;20439;-69
2021/01/20 01:07:55;;;;;;;68.45;43.20;;;1.40;99.90;;;;;;4910835;28;20059;-66
2021/01/20 01:10:22;;;;;;;71.97;42.70;;;1.40;99.90;;;;;;4912195;28;20061;-69
2021/01/20 01:13:05;;;;;;;61.95;38.75;;;1.40;99.90;;;;;;4910150;28;20066;-69
2021/01/20 01:15:35;;;;;;;74.28;44.65;;;1.40;99.90;;;;;;4911298;28;20047;-69
2021/01/20 01:18:03;;;;;;;63.33;43.17;;;1.40;99.90;;;;;;4910951;28;20138;-69
2021/01/20 01:20:30;;;;;;;71.60;43.92;;;1.40;99.90;;;;;;4911809;28;20042;-66
2021/01/20 01:23:15;;;;;;;70.80;43.60;;;1.50;99.90;;;;;;4908618;28;20149;-69
2021/01/20 01:25:41;;;;;;;66.75;43.70;;;1.50;99.90;;;;;;4912859;28;20055;-68
2021/01/20 01:28:16;;;;;;;70.05;43.42;;;1.50;99.90;;;;;;4911873;28;20506;-69
2021/01/20 01:30:57;;;;;;;70.07;42.80;;;1.40;99.90;;;;;;4911099;28;20059;-69
2021/01/20 01:33:26;;;;;;;70.90;42.72;;;1.50;99.90;;;;;;4910608;28;20055;-70
2021/01/20 01:35:53;;;;;;;65.20;43.92;;;1.50;99.90;;;;;;4910604;28;20065;-69
2021/01/20 01:38:20;;;;;;;67.38;43.30;;;1.50;99.90;;;;;;4904472;28;20055;-69
2021/01/20 01:40:53;;;;;;;68.30;41.40;;;1.50;99.90;;;;;;4911256;28;20506;-69
2021/01/20 01:43:31;;;;;;;72.03;44.15;;;1.50;99.90;;;;;;4911612;28;20177;-69
2021/01/20 01:46:24;;;;;;;72.05;43.63;;;1.50;99.90;;;;;;4910313;28;20051;-69
2021/01/20 01:49:10;;;;;;;65.53;41.15;;;1.50;99.90;;;;;;4911414;28;20128;-69
2021/01/20 01:51:36;;;;;;;67.15;40.63;;;1.50;99.90;;;;;;4911745;28;20066;-66
2021/01/20 01:54:22;;;;;;;62.92;43.00;;;1.60;99.90;;;;;;4913433;28;20184;-69
2021/01/20 01:56:49;;;;;;;71.47;44.38;;;1.60;99.90;;;;;;4911527;28;20177;-67
2021/01/20 01:59:19;;;;;;;68.40;41.25;;;1.60;99.90;;;;;;4914563;28;21558;-69
2021/01/20 02:01:46;;;;;;;72.35;45.20;;;1.60;99.90;;;;;;4912636;28;20119;-68
2021/01/20 02:04:18;;;;;;;60.83;39.53;;;1.60;99.90;;;;;;4911034;28;20150;-69
2021/01/20 02:06:54;;;;;;;61.75;39.63;;;1.60;99.90;;;;;;4912963;28;20165;-69
2021/01/20 02:09:27;;;;;;;65.85;41.22;;;1.60;99.90;;;;;;4911721;28;20245;-69
2021/01/20 02:12:25;;;;;;;54.72;37.60;;;1.60;99.90;;;;;;4911510;28;20046;-66
2021/01/20 02:15:31;;;;;;;64.28;39.38;;;1.50;99.90;;;;;;4911591;28;20043;-69
2021/01/20 02:18:24;;;;;;;60.83;39.63;;;1.50;99.90;;;;;;4912796;28;20124;-69
2021/01/20 02:21:38;;;;;;;60.40;38.58;;;1.50;99.90;;;;;;4910149;28;20139;-67
2021/01/20 02:24:51;;;;;;;65.88;39.25;;;1.50;99.90;;;;;;4892609;28;20069;-69
2021/01/20 02:27:53;;;;;;;60.13;36.40;;;1.50;99.90;;;;;;4910750;28;20383;-69
2021/01/20 02:30:24;;;;;;;56.35;38.42;;;1.50;99.90;;;;;;4911510;28;20046;-65
2021/01/20 02:32:56;;;;;;;64.03;39.38;;;1.50;99.90;;;;;;4910161;28;20055;-69
2021/01/20 02:35:39;;;;;;;67.32;41.08;;;1.50;99.90;;;;;;4910324;28;20174;-69
2021/01/20 02:38:08;;;;;;;67.60;38.65;;;1.50;99.90;;;;;;4911843;28;20047;-69
2021/01/20 02:40:53;;;;;;;66.68;39.90;;;1.50;99.90;;;;;;4912068;28;20120;-70
2021/01/20 02:43:43;;;;;;;70.18;41.95;;;1.50;99.90;;;;;;4917199;28;20046;-65
2021/01/20 02:46:32;;;;;;;68.93;42.40;;;1.50;99.90;;;;;;4896660;28;20055;-70
2021/01/20 02:49:05;;;;;;;70.35;42.05;;;1.50;99.90;;;;;;4898733;28;20053;-66
2021/01/20 02:51:55;;;;;;;74.88;46.45;;;1.50;99.90;;;;;;4913782;28;20078;-66
2021/01/20 02:54:42;;;;;;;77.28;45.50;;;1.50;99.90;;;;;;4913982;28;20074;-70
2021/01/20 02:57:31;;;;;;;78.88;42.95;;;1.40;99.90;;;;;;4915769;28;20046;-66
2021/01/20 03:00:05;;;;;;;75.18;44.72;;;1.40;99.90;;;;;;4916559;28;20054;-69
2021/01/20 03:02:39;;;;;;;72.63;43.83;;;1.50;99.90;;;;;;4914961;28;21301;-70
2021/01/20 03:05:09;;;;;;;86.25;49.45;;;1.50;99.90;;;;;;4916178;28;21539;-70
2021/01/20 03:07:38;;;;;;;82.53;48.03;;;1.50;99.90;;;;;;4917325;28;21560;-67
2021/01/20 03:10:08;;;;;;;85.47;47.85;;;1.50;99.90;;;;;;4913974;28;20054;-69
2021/01/20 03:12:35;;;;;;;80.05;47.33;;;1.50;99.90;;;;;;4915785;28;20062;-69
2021/01/20 03:15:04;;;;;;;88.85;49.72;;;1.50;99.90;;;;;;4913598;28;20394;-66
2021/01/20 03:17:31;;;;;;;81.90;48.53;;;1.50;99.90;;;;;;4915607;28;20154;-65
2021/01/20 03:19:58;;;;;;;75.95;45.03;;;1.40;99.90;;;;;;4916073;28;20979;-65
2021/01/20 03:22:25;;;;;;;71.80;44.92;;;1.50;99.90;;;;;;4910069;28;20422;-68
2021/01/20 03:24:52;;;;;;;80.03;46.50;;;1.50;99.90;;;;;;4915251;28;20058;-69
2021/01/20 03:27:18;;;;;;;84.32;48.03;;;1.40;99.90;;;;;;4915345;28;20047;-70
2021/01/20 03:29:44;;;;;;;78.25;47.28;;;1.50;99.90;;;;;;4915816;28;20402;-70
2021/01/20 03:32:11;;;;;;;80.95;46.95;;;1.50;99.90;;;;;;4914177;28;20163;-70
2021/01/20 03:34:37;;;;;;;79.55;47.13;;;1.50;99.90;;;;;;4914393;28;20083;-66
2021/01/20 03:37:04;;;;;;;75.75;44.90;;;1.50;99.90;;;;;;4912656;28;20051;-67
2021/01/20 03:39:31;;;;;;;80.97;45.45;;;1.50;99.90;;;;;;4913604;28;20047;-69
2021/01/20 03:41:58;;;;;;;79.93;46.78;;;1.50;99.90;;;;;;4917376;28;20066;-70
2021/01/20 03:44:24;;;;;;;78.05;45.95;;;1.50;99.90;;;;;;4912863;28;20050;-70
2021/01/20 03:46:51;;;;;;;82.88;49.17;;;1.50;99.90;;;;;;4915585;28;21329;-67
2021/01/20 03:49:18;;;;;;;79.75;45.85;;;1.50;99.90;;;;;;4915054;28;20054;-66
2021/01/20 03:51:47;;;;;;;79.43;43.97;;;1.40;99.90;;;;;;4914858;28;20168;-69
2021/01/20 03:54:14;;;;;;;81.03;47.10;;;1.50;99.90;;;;;;4912126;28;20849;-66
2021/01/20 03:56:40;;;;;;;71.68;44.10;;;1.50;99.90;;;;;;4915077;28;20050;-70
2021/01/20 03:59:07;;;;;;;74.07;45.63;;;1.40;99.90;;;;;;4915993;28;20062;-70
2021/01/20 04:01:34;;;;;;;74.32;43.67;;;1.40;99.90;;;;;;4914784;28;21338;-66
2021/01/20 04:04:01;;;;;;;81.32;47.15;;;1.40;99.90;;;;;;4913901;28;20053;-70
2021/01/20 04:06:37;;;;;;;77.53;46.33;;;1.40;99.90;;;;;;4913765;28;21580;-69
2021/01/20 04:09:05;;;;;;;78.28;45.33;;;1.40;99.90;;;;;;4916053;28;20067;-69
2021/01/20 04:11:32;;;;;;;80.93;47.58;;;1.40;99.90;;;;;;4913266;28;20053;-69
2021/01/20 04:13:59;;;;;;;77.75;47.42;;;1.40;99.90;;;;;;4915675;28;20046;-69
2021/01/20 04:16:26;;;;;;;85.25;48.17;;;1.40;99.90;;;;;;4911660;28;20157;-66
2021/01/20 04:18:53;;;;;;;85.72;48.13;;;1.40;99.90;;;;;;4913944;28;20047;-66
2021/01/20 04:21:20;;;;;;;81.72;46.88;;;1.40;99.90;;;;;;4913816;28;20051;-69
2021/01/20 04:23:47;;;;;;;74.40;46.60;;;1.40;99.90;;;;;;4913833;28;20053;-68
2021/01/20 04:26:13;;;;;;;94.18;52.60;;;1.40;99.90;;;;;;4913549;28;20089;-70
2021/01/20 04:28:40;;;;;;;94.53;52.33;;;1.40;99.90;;;;;;4913034;28;20070;-65
2021/01/20 04:31:06;;;;;;;90.63;51.45;;;1.40;99.90;;;;;;4914737;28;20162;-69
2021/01/20 04:33:33;;;;;;;90.82;54.78;;;1.40;99.90;;;;;;4914372;28;20042;-69
2021/01/20 04:35:59;;;;;;;100.65;55.72;;;1.50;99.90;;;;;;4913724;28;21494;-69
2021/01/20 04:38:26;;;;;;;85.43;50.65;;;1.50;99.90;;;;;;4910528;28;20168;-69
2021/01/20 04:40:54;;;;;;;106.63;57.05;;;1.50;99.90;;;;;;4916109;28;20100;-70
2021/01/20 04:43:21;;;;;;;95.88;54.80;;;1.50;99.90;;;;;;4914373;28;21558;-69
2021/01/20 04:45:54;;;;;;;95.35;54.70;;;1.50;99.90;;;;;;4912978;28;20140;-65
2021/01/20 04:48:21;;;;;;;102.32;55.22;;;1.50;99.90;;;;;;4913383;28;20066;-70
2021/01/20 04:50:48;;;;;;;116.72;59.83;;;1.50;99.90;;;;;;4913647;28;20068;-69
2021/01/20 04:53:18;;;;;;;112.00;61.47;;;1.50;99.90;;;;;;4915154;28;20101;-67
2021/01/20 04:55:45;;;;;;;126.57;62.88;;;1.50;99.90;;;;;;4914835;28;20618;-70
2021/01/20 04:58:13;;;;;;;116.13;64.88;;;1.50;99.90;;;;;;4911574;28;20132;-68
2021/01/20 05:00:41;;;;;;;122.43;65.22;;;1.50;99.90;;;;;;4914556;28;20054;-69
2021/01/20 05:03:09;;;;;;;121.68;64.70;;;1.50;99.90;;;;;;4913132;28;20051;-70
2021/01/20 05:05:36;;;;;;;114.43;67.07;;;1.50;99.90;;;;;;4912326;28;20162;-66
2021/01/20 05:08:06;;;;;;;113.93;62.05;;;1.50;99.90;;;;;;4912923;28;20055;-68
2021/01/20 05:10:33;;;;;;;124.97;65.83;;;1.60;99.90;;;;;;4913151;28;20058;-69
2021/01/20 05:13:00;;;;;;;130.90;68.95;;;1.60;99.90;;;;;;4913268;28;20055;-68
2021/01/20 05:15:32;;;;;;;123.40;63.35;;;1.60;99.90;;;;;;4912082;28;20104;-70
2021/01/20 05:18:06;;;;;;;126.03;64.20;;;1.60;99.90;;;;;;4913480;28;20047;-70
2021/01/20 05:20:37;;;;;;;133.13;69.25;;;1.60;99.90;;;;;;4911681;28;20173;-70
2021/01/20 05:23:08;;;;;;;141.98;70.30;;;1.60;99.90;;;;;;4911922;28;20050;-70
2021/01/20 05:25:37;;;;;;;134.23;68.68;;;1.60;99.90;;;;;;4912908;28;21414;-66
2021/01/20 05:28:24;;;;;;;131.45;67.95;;;1.60;99.90;;;;;;4915148;28;20305;-70
2021/01/20 05:30:52;;;;;;;152.38;75.32;;;1.60;99.90;;;;;;4911519;28;20117;-70
2021/01/20 05:33:23;;;;;;;143.63;73.40;;;1.60;99.90;;;;;;4914219;28;20179;-69
2021/01/20 05:36:22;;;;;;;151.88;71.20;;;1.60;99.90;;;;;;4912313;28;20252;-71
2021/01/20 05:38:50;;;;;;;146.68;74.95;;;1.60;99.90;;;;;;4911052;28;21002;-66
2021/01/20 05:41:23;;;;;;;158.15;74.18;;;1.60;99.90;;;;;;4913537;28;20043;-70
2021/01/20 05:43:54;;;;;;;159.73;74.82;;;1.60;99.90;;;;;;4912565;28;20257;-70
2021/01/20 05:46:37;;;;;;;147.32;73.15;;;1.60;99.90;;;;;;4911993;28;20062;-67
2021/01/20 05:49:05;;;;;;;162.25;78.45;;;1.70;99.90;;;;;;4910888;28;20146;-67
2021/01/20 05:51:42;;;;;;;162.30;77.93;;;1.70;99.90;;;;;;4910578;28;21510;-66
2021/01/20 05:54:10;;;;;;;158.18;77.22;;;1.70;99.90;;;;;;4910506;28;20061;-70
2021/01/20 05:56:37;;;;;;;170.07;76.70;;;1.70;99.90;;;;;;4911799;28;20233;-70
2021/01/20 05:59:10;;;;;;;169.27;83.00;;;1.70;99.90;;;;;;4911575;28;20454;-67
2021/01/20 06:01:37;;;;;;;145.30;72.90;;;1.70;99.90;;;;;;4914249;28;20323;-70
2021/01/20 06:04:05;;;;;;;170.18;77.55;;;1.70;99.90;;;;;;4912138;28;20043;-71
2021/01/20 06:06:32;;;;;;;150.05;75.00;;;1.70;99.90;;;;;;4910521;28;20043;-67
2021/01/20 06:09:01;;;;;;;155.20;75.65;;;1.70;99.90;;;;;;4910076;28;20173;-70
2021/01/20 06:11:27;;;;;;;159.77;78.53;;;1.70;99.90;;;;;;4912755;28;20047;-66
2021/01/20 06:13:54;;;;;;;172.82;81.70;;;1.70;99.90;;;;;;4909746;28;20132;-69
2021/01/20 06:16:28;;;;;;;157.48;80.68;;;1.70;99.90;;;;;;4912239;28;20055;-70
2021/01/20 06:19:00;;;;;;;152.57;75.72;;;1.70;99.90;;;;;;4912223;28;20073;-67
2021/01/20 06:21:28;;;;;;;150.50;74.70;;;1.70;99.90;;;;;;4910278;28;20066;-70
2021/01/20 06:24:12;;;;;;;148.23;73.68;;;1.70;99.90;;;;;;4912715;28;20057;-70
2021/01/20 06:27:13;;;;;;;153.05;73.40;;;1.70;99.90;;;;;;4909137;28;20054;-70
2021/01/20 06:29:50;;;;;;;149.82;71.75;;;1.70;99.90;;;;;;4917226;28;20097;-65
2021/01/20 06:32:21;;;;;;;143.98;74.88;;;1.70;99.90;;;;;;4914220;28;20199;-70
2021/01/20 06:34:56;;;;;;;150.70;75.10;;;1.70;99.90;;;;;;4915772;28;20051;-65
2021/01/20 06:37:46;;;;;;;150.07;72.57;;;1.70;99.90;;;;;;4915078;28;20058;-67
2021/01/20 06:40:18;;;;;;;161.88;76.93;;;1.60;99.90;;;;;;4914312;28;20057;-69
2021/01/20 06:42:45;;;;;;;158.05;73.55;;;1.60;99.90;;;;;;4916516;28;20119;-70
2021/01/20 06:45:19;;;;;;;157.68;75.43;;;1.70;99.90;;;;;;4916591;28;20062;-70
2021/01/20 06:47:58;;;;;;;156.85;75.60;;;1.60;99.90;;;;;;4917691;28;20142;-66
2021/01/20 06:50:26;;;;;;;160.18;76.63;;;1.70;99.90;;;;;;4921440;28;20078;-70
2021/01/20 06:53:02;;;;;;;160.25;81.90;;;1.70;99.90;;;;;;4920849;28;20133;-63
2021/01/20 06:55:36;;;;;;;177.52;82.97;;;1.70;99.90;;;;;;4921274;28;20178;-67
2021/01/20 06:58:18;;;;;;;159.80;78.95;;;1.70;99.90;;;;;;4918560;28;20058;-68
2021/01/20 07:01:00;;;;;;;172.50;77.68;;;1.70;99.90;;;;;;4923033;28;20097;-68
2021/01/20 07:03:53;;;;;;;171.85;79.18;;;1.70;99.90;;;;;;4921831;28;20074;-67
2021/01/20 07:06:38;;;;;;;170.43;78.43;;;1.60;99.90;;;;;;4920583;28;21510;-74
2021/01/20 07:09:09;;;;;;;168.25;79.60;;;1.60;99.90;;;;;;4922451;28;20066;-70
2021/01/20 07:11:57;;;;;;;170.52;82.88;;;1.70;99.90;;;;;;4923635;28;20161;-73
2021/01/20 07:14:30;;;;;;;162.88;82.85;;;1.60;99.90;;;;;;4918347;28;20506;-71
2021/01/20 07:16:59;;;;;;;163.15;81.20;;;1.60;99.90;;;;;;4920299;28;20055;-74
2021/01/20 07:19:26;;;;;;;191.57;84.95;;;1.60;99.90;;;;;;4919230;28;20054;-69
2021/01/20 07:21:53;;;;;;;180.13;82.68;;;1.60;99.90;;;;;;4916785;28;21407;-69
2021/01/20 07:24:20;;;;;;;184.57;80.03;;;1.60;99.90;;;;;;4918742;28;20051;-65
2021/01/20 07:26:47;;;;;;;178.75;81.35;;;1.60;99.90;;;;;;4915359;28;20198;-67
2021/01/20 07:29:18;;;;;;;176.35;83.18;;;1.60;99.90;;;;;;4918776;28;20082;-65
2021/01/20 07:31:49;;;;;;;187.63;81.05;;;1.60;99.90;;;;;;4918454;28;20051;-65
2021/01/20 07:34:17;;;;;;;170.05;78.95;;;1.60;99.90;;;;;;4915527;28;21456;-64
2021/01/20 07:36:45;;;;;;;178.75;79.53;;;1.60;99.90;;;;;;4917699;28;20157;-68
2021/01/20 07:39:22;;;;;;;166.35;78.22;;;1.60;99.90;;;;;;4917818;28;20605;-68
2021/01/20 07:41:53;;;;;;;174.30;81.80;;;1.60;99.90;;;;;;4918672;28;20047;-67
2021/01/20 07:44:20;;;;;;;175.55;81.38;;;1.60;99.90;;;;;;4919118;28;20884;-64
2021/01/20 07:46:59;;;;;;;158.80;80.10;;;1.60;99.90;;;;;;4927194;28;21565;-64
2021/01/20 07:49:27;;;;;;;147.63;73.07;;;1.60;99.90;;;;;;4959424;28;21167;-64
2021/01/20 07:52:05;;;;;;;153.35;70.30;;;1.60;99.90;;;;;;4963848;28;20061;-65
2021/01/20 07:54:39;;;;;;;140.80;68.85;;;1.60;99.90;;;;;;4959359;28;20064;-64
2021/01/20 07:57:07;;;;;;;135.02;68.07;;;1.60;99.90;;;;;;4960990;28;20062;-63
2021/01/20 07:59:35;;;;;;;131.55;67.38;;;1.60;99.90;;;;;;4957537;28;20430;-67
2021/01/20 08:02:17;;;;;;;114.40;64.50;;;1.60;99.90;;;;;;4960517;28;20125;-64
2021/01/20 08:04:44;;;;;;;113.40;64.20;;;1.60;99.90;;;;;;4959648;28;20144;-65
2021/01/20 08:07:22;;;;;;;122.43;61.80;;;1.60;99.90;;;;;;4961927;28;20078;-65
2021/01/20 08:09:49;;;;;;;118.10;60.72;;;1.60;99.90;;;;;;4960378;28;20074;-65
2021/01/20 08:12:21;;;;;;;129.93;64.80;;;1.60;99.90;;;;;;4957763;28;20051;-63
2021/01/20 08:14:49;;;;;;;108.68;58.65;;;1.60;99.90;;;;;;4957480;28;20039;-66
2021/01/20 08:17:17;;;;;;;113.43;61.05;;;1.60;99.90;;;;;;4959835;28;20050;-64
2021/01/20 08:19:44;;;;;;;99.28;55.70;;;1.60;99.90;;;;;;4960917;28;20070;-64
2021/01/20 08:22:14;;;;;;;105.70;58.67;;;1.60;99.90;;;;;;4955087;28;20098;-64
2021/01/20 08:24:58;;;;;;;96.30;56.05;;;1.60;99.90;;;;;;4959557;28;20043;-64
2021/01/20 08:27:30;;;;;;;95.88;53.35;;;1.60;99.90;;;;;;4958810;28;20057;-64
2021/01/20 08:29:58;;;;;;;87.53;50.78;;;1.70;99.90;;;;;;4961522;28;20047;-66
2021/01/20 08:32:25;;;;;;;95.05;51.38;;;1.70;99.90;;;;;;4962269;28;20133;-67
2021/01/20 08:34:54;;;;;;;89.10;50.03;;;1.70;99.90;;;;;;4954369;28;20049;-65
2021/01/20 08:37:37;;;;;;;82.80;48.50;;;1.60;99.90;;;;;;4959608;28;20054;-66
2021/01/20 08:40:05;;;;;;;92.05;52.33;;;1.70;99.90;;;;;;4960404;28;20117;-67
2021/01/20 08:42:34;;;;;;;84.15;48.80;;;1.70;99.90;;;;;;4959939;28;20062;-64
2021/01/20 08:45:19;;;;;;;80.07;49.00;;;1.70;99.90;;;;;;4955310;28;20117;-64
2021/01/20 08:47:47;;;;;;;88.07;50.50;;;1.70;99.90;;;;;;4957877;28;20360;-71
2021/01/20 08:50:20;;;;;;;82.00;46.55;;;1.70;99.90;;;;;;4958410;28;20769;-67
2021/01/20 08:52:51;;;;;;;85.32;50.60;;;1.70;99.90;;;;;;4959201;28;20051;-65
2021/01/20 08:55:23;;;;;;;92.13;49.05;;;1.70;99.90;;;;;;4957634;28;20054;-66
2021/01/20 08:58:15;;;;;;;77.88;46.50;;;1.70;99.90;;;;;;4958323;28;20756;-66
2021/01/20 09:00:42;;;;;;;79.82;47.38;;;1.70;99.90;;;;;;4960739;28;20055;-64
2021/01/20 09:03:33;;;;;;;84.60;52.67;;;1.70;99.90;;;;;;4958799;28;20486;-65
2021/01/20 09:06:03;;;;;;;78.30;48.28;;;1.70;99.90;;;;;;4960042;28;20046;-66
2021/01/20 09:08:31;;;;;;;78.45;50.13;;;1.70;99.90;;;;;;4955315;28;20090;-65
2021/01/20 09:11:00;;;;;;;90.38;50.90;;;1.70;99.90;;;;;;4958734;28;20063;-66
2021/01/20 09:13:27;;;;;;;76.45;45.47;;;1.70;99.90;;;;;;4951707;28;20050;-68
2021/01/20 09:15:55;;;;;;;80.47;48.08;;;1.70;99.90;;;;;;4960479;28;20607;-65
2021/01/20 09:18:22;;;;;;;88.78;51.33;;;1.70;99.90;;;;;;4957047;28;20499;-64
2021/01/20 09:20:50;;;;;;;84.88;50.10;;;1.70;99.90;;;;;;4956605;28;20138;-67
2021/01/20 09:23:18;;;;;;;83.40;49.80;;;1.70;99.90;;;;;;4959029;28;20039;-66
2021/01/20 09:25:45;;;;;;;83.40;49.92;;;1.70;99.90;;;;;;4958703;28;20062;-65
2021/01/20 09:28:12;;;;;;;86.35;53.42;;;1.70;99.90;;;;;;4958083;28;20046;-65
2021/01/20 09:30:38;;;;;;;82.97;51.65;;;1.70;99.90;;;;;;4960586;28;20062;-64
2021/01/20 09:33:05;;;;;;;81.07;49.22;;;1.70;99.90;;;;;;4957734;28;20141;-65
2021/01/20 09:35:32;;;;;;;84.20;48.45;;;1.70;99.90;;;;;;4959443;28;20612;-68
2021/01/20 09:37:59;;;;;;;82.00;48.80;;;1.70;99.90;;;;;;4958003;28;20055;-64
2021/01/20 09:40:27;;;;;;;77.40;46.95;;;1.80;99.90;;;;;;4962712;28;20055;-65
2021/01/20 09:42:54;;;;;;;79.32;47.50;;;1.70;99.90;;;;;;4959574;28;20051;-68
2021/01/20 09:45:27;;;;;;;81.78;49.05;;;1.70;99.90;;;;;;4959899;28;20050;-69
2021/01/20 09:47:58;;;;;;;81.30;48.72;;;1.70;99.90;;;;;;4957591;28;20409;-66
2021/01/20 09:50:26;;;;;;;77.05;48.40;;;1.70;99.90;;;;;;4958840;28;20050;-66
2021/01/20 09:52:53;;;;;;;78.60;46.03;;;1.80;99.90;;;;;;4958721;28;20094;-64
2021/01/20 09:55:20;;;;;;;79.15;49.63;;;1.80;99.90;;;;;;4958348;28;20065;-63
2021/01/20 09:57:47;;;;;;;77.47;47.88;;;1.80;99.90;;;;;;4958558;28;20073;-68
2021/01/20 10:00:14;;;;;;;83.85;49.50;;;1.70;99.90;;;;;;4958380;28;20074;-64
2021/01/20 10:02:41;;;;;;;97.63;50.78;;;1.80;99.90;;;;;;4960666;28;20065;-66
2021/01/20 10:05:10;;;;;;;79.03;48.28;;;1.80;99.90;;;;;;4960005;28;20130;-70
2021/01/20 10:07:37;;;;;;;76.70;47.08;;;1.80;99.90;;;;;;4957578;28;20157;-67
2021/01/20 10:10:06;;;;;;;76.82;45.28;;;1.80;99.90;;;;;;4960944;28;20468;-66
2021/01/20 10:12:32;;;;;;;72.72;47.28;;;1.80;99.90;;;;;;4959102;28;20133;-64
2021/01/20 10:14:59;;;;;;;87.63;51.65;;;1.80;99.90;;;;;;4963631;28;20097;-71
2021/01/20 10:17:25;;;;;;;92.65;48.80;;;1.80;99.90;;;;;;4953284;28;22712;-68
2021/01/20 10:19:52;;;;;;;83.57;50.95;;;1.80;99.90;;;;;;4954547;28;20403;-65
2021/01/20 10:22:19;;;;;;;80.68;48.70;;;1.80;99.90;;;;;;4956746;28;20062;-70
2021/01/20 10:24:46;;;;;;;75.72;47.25;;;1.80;99.90;;;;;;4958181;28;20075;-67
2021/01/20 10:27:12;;;;;;;80.53;48.15;;;1.80;99.90;;;;;;4953289;28;20058;-65
2021/01/20 10:29:39;;;;;;;77.25;46.63;;;1.80;99.90;;;;;;4958212;28;20085;-68
2021/01/20 10:32:05;;;;;;;79.95;49.05;;;1.80;99.90;;;;;;4960084;28;20049;-67
2021/01/20 10:34:32;;;;;;;76.32;47.08;;;1.80;99.90;;;;;;4956646;28;20047;-64
2021/01/20 10:36:59;;;;;;;81.50;47.03;;;1.80;99.90;;;;;;4952850;28;20047;-71
2021/01/20 10:39:25;;;;;;;73.00;45.53;;;1.80;99.90;;;;;;4961858;28;20050;-69
2021/01/20 10:41:52;;;;;;;77.45;44.00;;;1.80;99.90;;;;;;4959520;28;20066;-68
2021/01/20 10:44:19;;;;;;;74.88;45.92;;;1.80;99.90;;;;;;4957200;28;20047;-67
2021/01/20 10:46:47;;;;;;;74.68;46.22;;;1.80;99.90;;;;;;4960000;28;20066;-66
2021/01/20 10:49:14;;;;;;;74.53;47.63;;;1.80;99.90;;;;;;4960801;28;20818;-69
2021/01/20 10:51:41;;;;;;;76.68;45.97;;;1.80;99.90;;;;;;4961290;28;20132;-67
2021/01/20 10:54:07;;;;;;;81.82;45.45;;;1.80;99.90;;;;;;4957929;28;20078;-68
2021/01/20 10:56:35;;;;;;;65.82;42.65;;;1.80;99.90;;;;;;4961761;28;20051;-67
2021/01/20 10:59:02;;;;;;;70.90;43.33;;;1.80;99.90;;;;;;4954481;28;20086;-73
2021/01/20 11:01:29;;;;;;;64.60;41.45;;;1.80;99.90;;;;;;4957968;28;20065;-73
2021/01/20 11:03:57;;;;;;;63.20;41.05;;;1.90;99.90;;;;;;4957873;28;20130;-70
2021/01/20 11:06:24;;;;;;;71.63;43.80;;;1.90;99.90;;;;;;4959340;28;20046;-66
2021/01/20 11:08:51;;;;;;;75.32;45.13;;;1.80;99.90;;;;;;4955350;28;20055;-68
2021/01/20 11:11:18;;;;;;;54.13;38.03;;;1.80;99.90;;;;;;4959004;28;20392;-72
2021/01/20 11:13:45;;;;;;;66.78;40.35;;;1.90;99.90;;;;;;4973730;28;20047;-66
2021/01/20 11:16:13;;;;;;;63.95;41.15;;;1.80;99.90;;;;;;4959157;28;20498;-74
2021/01/20 11:18:39;;;;;;;69.13;42.88;;;1.80;99.90;;;;;;4958327;28;20055;-68
2021/01/20 11:21:06;;;;;;;59.47;36.00;;;1.80;99.90;;;;;;4960571;28;20050;-66
2021/01/20 11:23:35;;;;;;;62.22;37.67;;;1.80;99.90;;;;;;4960050;28;20054;-68
2021/01/20 11:26:08;;;;;;;67.87;40.87;;;1.80;99.90;;;;;;4962117;28;20039;-70
2021/01/20 11:28:35;;;;;;;64.20;39.47;;;1.80;99.90;;;;;;4960540;28;20142;-70
2021/01/20 11:31:02;;;;;;;62.75;38.95;;;1.80;99.90;;;;;;4964285;28;20031;-65
2021/01/20 11:33:36;;;;;;;61.95;38.38;;;1.80;99.90;;;;;;4962012;28;20042;-69
2021/01/20 11:36:04;;;;;;;51.88;33.28;;;1.80;99.90;;;;;;4962742;28;20465;-69
2021/01/20 11:38:31;;;;;;;51.28;34.88;;;1.80;99.90;;;;;;4957320;28;20047;-65
2021/01/20 11:40:58;;;;;;;50.13;31.67;;;1.80;99.90;;;;;;4957867;28;20553;-68
2021/01/20 11:43:24;;;;;;;52.97;35.47;;;1.80;99.90;;;;;;4958992;28;20511;-70
2021/01/20 11:45:51;;;;;;;55.90;34.70;;;1.80;99.90;;;;;;4962796;28;20071;-70
2021/01/20 11:48:17;;;;;;;56.90;34.83;;;1.70;99.90;;;;;;4960448;28;20049;-67
2021/01/20 11:50:46;;;;;;;54.33;36.10;;;1.70;99.90;;;;;;4963966;28;21239;-65
2021/01/20 11:53:19;;;;;;;52.33;33.63;;;1.70;99.90;;;;;;4962597;28;20050;-68
2021/01/20 11:55:46;;;;;;;52.67;33.20;;;1.70;99.90;;;;;;4961569;28;20073;-71
2021/01/20 11:58:12;;;;;;;52.67;36.08;;;1.60;99.90;;;;;;4962410;28;20059;-69
2021/01/20 12:00:39;;;;;;;54.95;32.80;;;1.60;99.90;;;;;;4963624;28;20057;-71
2021/01/20 12:03:05;;;;;;;47.72;31.65;;;1.60;99.90;;;;;;4961686;28;20068;-67
2021/01/20 12:05:32;;;;;;;50.63;33.83;;;1.60;99.90;;;;;;4961971;28;20038;-67
2021/01/20 12:07:58;;;;;;;49.05;29.63;;;1.60;99.90;;;;;;4958358;28;20252;-73
2021/01/20 12:10:25;;;;;;;60.05;32.28;;;1.60;99.90;;;;;;4960876;28;20201;-70
2021/01/20 12:12:51;;;;;;;48.53;30.67;;;1.60;99.90;;;;;;4958829;28;20129;-68
2021/01/20 12:15:18;;;;;;;48.42;29.85;;;1.60;99.90;;;;;;4961950;28;20174;-71
2021/01/20 12:17:44;;;;;;;47.03;30.38;;;1.60;99.90;;;;;;4960718;28;20470;-71
2021/01/20 12:20:12;;;;;;;45.58;29.13;;;1.60;99.90;;;;;;4960389;28;20046;-69
2021/01/20 12:22:39;;;;;;;46.10;29.75;;;1.50;99.90;;;;;;4959054;28;20482;-71
2021/01/20 12:25:07;;;;;;;42.03;28.88;;;1.50;99.90;;;;;;4960626;28;20042;-67
2021/01/20 12:27:37;;;;;;;42.22;28.38;;;1.50;99.90;;;;;;4963210;28;20050;-65
2021/01/20 12:30:05;;;;;;;44.78;27.17;;;1.50;99.90;;;;;;4959456;28;20608;-70
2021/01/20 12:32:31;;;;;;;46.85;29.85;;;1.50;99.90;;;;;;4959525;28;20043;-65
2021/01/20 12:34:58;;;;;;;51.03;31.30;;;1.50;99.90;;;;;;4960639;28;20042;-71
2021/01/20 12:37:24;;;;;;;46.47;28.95;;;1.50;99.90;;;;;;4961282;28;20500;-69
2021/01/20 12:39:50;;;;;;;41.55;29.70;;;1.50;99.90;;;;;;4958447;28;20141;-72
2021/01/20 12:42:17;;;;;;;42.40;29.88;;;1.50;99.90;;;;;;4956144;28;20998;-66
2021/01/20 12:44:44;;;;;;;45.88;26.95;;;1.50;99.90;;;;;;4960841;28;20082;-72
2021/01/20 12:47:10;;;;;;;40.60;26.05;;;1.50;99.90;;;;;;4958655;28;20054;-68
2021/01/20 12:49:37;;;;;;;41.20;27.15;;;1.50;99.90;;;;;;4964012;28;20050;-73
2021/01/20 12:52:03;;;;;;;45.00;29.45;;;1.50;99.90;;;;;;4959015;28;20117;-73